Time;durP1;ratioP1;P1;durP2;ratioP2;P2;SDS_P1;SDS_P2;PMS_P1;PMS_P2;Temp;Humidity;BMP_temperature;BMP_pressure;BME280_temperature;BME280_humidity;BME280_pressure;Samples;Min_cycle;Max_cycle;Signal;HPM_P1;HPM_P2
2022/02/09 00:09:25;;;;;;;8.77;4.10;;;8.10;99.90;;;;;;4946063;28;20035;-78
2022/02/09 00:14:35;;;;;;;6.32;3.65;;;8.10;99.90;;;;;;4955914;28;20486;-79
2022/02/09 00:20:10;;;;;;;6.95;3.63;;;8.20;99.90;;;;;;4952255;28;20054;-78
2022/02/09 00:23:28;;;;;;;6.32;3.42;;;7.90;99.90;;;;;;4944820;28;20054;-77
2022/02/09 00:36:31;;;;;;;6.25;3.55;;;;;;;;;;4951406;28;20031;-77
2022/02/09 01:51:16;;;;;;;6.80;3.78;;;8.00;99.90;;;;;;4945139;28;20127;-78
2022/02/09 01:56:28;;;;;;;7.45;3.50;;;;;;;;;;4957111;28;20518;-77
2022/02/09 01:58:55;;;;;;;8.50;3.83;;;;;;;;;;4968388;28;20478;-78
2022/02/09 02:01:21;;;;;;;7.03;3.70;;;;;;;;;;4953207;29;20038;-78
2022/02/09 02:03:47;;;;;;;8.02;3.67;;;;;;;;;;4956220;28;20027;-78
2022/02/09 02:06:15;;;;;;;6.70;3.63;;;7.80;99.90;;;;;;4970751;28;20027;-77
2022/02/09 02:08:44;;;;;;;7.05;3.25;;;7.90;99.90;;;;;;4953699;28;20035;-78
2022/02/09 02:11:20;;;;;;;5.47;3.72;;;;;;;;;;4963938;28;20023;-77
2022/02/09 02:19:12;;;;;;;5.57;3.25;;;;;;;;;;4949486;29;20031;-77
2022/02/09 03:14:09;;;;;;;8.77;3.75;;;;;;;;;;4951584;28;20555;-80
2022/02/09 03:16:43;;;;;;;6.18;3.75;;;;;;;;;;4949570;28;20070;-77
2022/02/09 03:19:42;;;;;;;9.90;3.78;;;;;;;;;;4952682;28;20032;-78
2022/02/09 03:22:51;;;;;;;8.70;3.70;;;8.00;99.90;;;;;;4949911;28;20123;-77
2022/02/09 03:50:07;;;;;;;9.40;3.72;;;;;;;;;;4952070;28;20047;-77
2022/02/09 03:57:46;;;;;;;8.07;4.00;;;;;;;;;;4947853;28;20044;-77
2022/02/09 04:00:19;;;;;;;8.75;4.45;;;;;;;;;;4957949;28;20057;-77
2022/02/09 04:02:46;;;;;;;9.00;4.55;;;;;;;;;;4946768;28;20036;-76
2022/02/09 04:05:12;;;;;;;8.07;4.50;;;;;;;;;;4955072;28;20055;-76
2022/02/09 04:07:38;;;;;;;11.98;4.72;;;;;;;;;;4947208;28;20035;-77
2022/02/09 04:10:07;;;;;;;7.47;4.10;;;;;;;;;;4969919;28;20024;-78
2022/02/09 04:12:44;;;;;;;10.55;4.30;;;;;;;;;;4946952;28;20057;-79
2022/02/09 04:15:31;;;;;;;8.32;4.63;;;;;;;;;;4954032;28;20033;-80
2022/02/09 04:18:19;;;;;;;10.65;5.03;;;;;;;;;;4951649;28;20116;-78
2022/02/09 04:37:09;;;;;;;10.95;5.20;;;7.80;99.90;;;;;;4950187;28;20038;-78
2022/02/09 04:40:00;;;;;;;10.07;5.07;;;;;;;;;;4968836;28;20035;-78
2022/02/09 04:50:51;;;;;;;11.82;5.47;;;7.90;99.90;;;;;;4948773;28;20043;-78
2022/02/09 04:56:09;;;;;;;8.85;4.85;;;7.70;99.90;;;;;;4946750;28;20551;-78
2022/02/09 05:18:25;;;;;;;11.65;5.10;;;;;;;;;;4955273;28;20046;-75
2022/02/09 05:23:43;;;;;;;11.73;4.57;;;;;;;;;;4951689;28;20035;-78
2022/02/09 05:28:41;;;;;;;10.35;5.70;;;7.80;99.90;;;;;;4950705;28;20286;-77
2022/02/09 05:31:08;;;;;;;14.02;5.15;;;;;;;;;;4948053;28;20035;-76
2022/02/09 05:33:34;;;;;;;13.73;5.45;;;;;;;;;;4970245;28;20042;-77
2022/02/09 05:36:00;;;;;;;15.70;6.38;;;;;;;;;;4952520;28;20398;-77
2022/02/09 05:38:26;;;;;;;12.45;4.95;;;;;;;;;;4947173;28;20031;-77
2022/02/09 05:40:52;;;;;;;13.85;5.45;;;;;;;;;;4949423;28;20032;-77
2022/02/09 05:43:20;;;;;;;13.23;5.57;;;;;;;;;;4963028;28;20041;-77
2022/02/09 05:51:25;;;;;;;13.85;5.18;;;;;;;;;;4952763;28;20470;-77
2022/02/09 05:56:42;;;;;;;19.75;5.35;;;;;;;;;;4948942;28;20119;-77
2022/02/09 05:59:28;;;;;;;13.05;5.38;;;;;;;;;;4945646;28;20052;-77
2022/02/09 06:01:54;;;;;;;11.50;4.80;;;;;;;;;;4962241;28;20403;-77
2022/02/09 06:04:20;;;;;;;14.00;4.95;;;;;;;;;;4951977;28;20114;-77
2022/02/09 06:06:46;;;;;;;11.88;5.32;;;;;;;;;;4950671;28;20050;-77
2022/02/09 06:09:12;;;;;;;15.90;5.93;;;;;;;;;;4947836;28;20043;-77
2022/02/09 06:11:53;;;;;;;14.63;5.65;;;;;;;;;;4949221;28;20502;-77
2022/02/09 06:14:54;;;;;;;12.55;5.90;;;;;;;;;;4945236;28;20042;-77
2022/02/09 06:20:06;;;;;;;12.00;5.25;;;7.90;99.90;;;;;;4943826;28;20143;-77
2022/02/09 06:22:31;;;;;;;12.90;5.50;;;7.90;99.90;;;;;;4938273;28;20031;-76
2022/02/09 06:24:57;;;;;;;17.05;5.72;;;;;;;;;;4942120;28;20024;-79
2022/02/09 06:27:23;;;;;;;16.65;6.38;;;;;;;;;;4943329;28;20091;-78
2022/02/09 06:29:49;;;;;;;14.70;5.90;;;;;;;;;;4962231;28;20190;-77
2022/02/09 06:32:18;;;;;;;13.65;6.10;;;7.80;99.90;;;;;;4944134;28;20439;-78
2022/02/09 06:34:45;;;;;;;18.38;7.28;;;8.00;99.90;;;;;;4945800;28;20031;-77
2022/02/09 06:37:19;;;;;;;14.10;6.03;;;7.90;99.90;;;;;;4942550;28;20043;-76
2022/02/09 06:39:47;;;;;;;14.55;6.25;;;;;;;;;;4948065;28;20039;-77
2022/02/09 06:42:22;;;;;;;21.73;9.98;;;;;;;;;;4959008;28;20042;-78
2022/02/09 06:44:49;;;;;;;15.27;6.22;;;;;;;;;;4946075;28;20031;-77
2022/02/09 06:47:17;;;;;;;17.65;5.55;;;;;;;;;;4942956;28;20033;-76
2022/02/09 06:49:43;;;;;;;13.20;5.38;;;8.10;99.90;;;;;;4945749;28;20040;-77
2022/02/09 06:52:09;;;;;;;12.88;5.45;;;;;;;;;;4946970;28;20440;-77
2022/02/09 06:54:44;;;;;;;15.30;5.95;;;;;;;;;;4945359;28;20058;-78
2022/02/09 06:57:27;;;;;;;13.90;5.30;;;;;;;;;;4938280;28;20035;-78
2022/02/09 06:59:53;;;;;;;19.35;9.35;;;8.00;99.90;;;;;;4946330;28;20015;-77
2022/02/09 07:02:19;;;;;;;12.63;6.15;;;;;;;;;;4944932;28;20092;-77
2022/02/09 07:04:49;;;;;;;15.88;5.78;;;;;;;;;;4943954;28;20027;-78
2022/02/09 07:07:15;;;;;;;11.90;5.75;;;;;;;;;;4945678;28;21974;-77
2022/02/09 07:09:41;;;;;;;15.48;5.35;;;;;;;;;;4943707;28;20059;-76
2022/02/09 07:12:07;;;;;;;13.55;5.80;;;;;;;;;;4943222;28;20031;-76
2022/02/09 07:14:33;;;;;;;15.10;5.63;;;;;;;;;;4947865;28;20684;-75
2022/02/09 07:16:59;;;;;;;12.18;6.13;;;;;;;;;;4944952;28;20039;-77
2022/02/09 07:19:29;;;;;;;12.50;5.68;;;8.10;99.90;;;;;;4940817;28;20419;-76
2022/02/09 07:21:55;;;;;;;12.02;4.68;;;;;;;;;;4940727;28;20039;-77
2022/02/09 07:24:22;;;;;;;13.82;4.95;;;;;;;;;;4960786;28;20484;-78
2022/02/09 07:26:50;;;;;;;13.30;5.20;;;7.90;99.90;;;;;;4944350;28;20031;-77
2022/02/09 07:29:18;;;;;;;10.27;5.03;;;8.00;99.90;;;;;;4955248;28;20607;-79
2022/02/09 07:31:44;;;;;;;14.35;5.85;;;7.90;99.90;;;;;;4941952;28;20027;-77
2022/02/09 07:34:11;;;;;;;14.63;6.07;;;7.90;99.90;;;;;;4945522;28;20028;-77
2022/02/09 07:36:39;;;;;;;12.75;5.35;;;7.90;99.90;;;;;;4939735;28;20039;-77
2022/02/09 07:39:07;;;;;;;17.60;5.95;;;7.80;99.90;;;;;;4948173;28;20032;-77
2022/02/09 07:41:35;;;;;;;16.63;6.28;;;;;;;;;;4943650;28;20493;-77
2022/02/09 07:44:14;;;;;;;13.52;5.18;;;;;;;;;;4961390;28;20089;-77
2022/02/09 07:49:39;;;;;;;10.48;4.65;;;;;;;;;;4942549;28;20091;-76
2022/02/09 07:52:19;;;;;;;11.53;4.53;;;;;;;;;;4958012;28;20035;-78
2022/02/09 07:54:45;;;;;;;11.23;4.50;;;;;;;;;;4946658;28;20286;-77
2022/02/09 07:57:11;;;;;;;9.48;4.60;;;;;;;;;;4944523;28;20031;-76
2022/02/09 07:59:37;;;;;;;10.88;5.25;;;;;;;;;;4969801;28;20115;-77
2022/02/09 08:02:03;;;;;;;10.68;4.80;;;;;;;;;;4945219;28;20028;-76
2022/02/09 08:04:29;;;;;;;11.15;4.78;;;;;;;;;;4946908;28;20035;-78
2022/02/09 08:06:55;;;;;;;9.02;4.22;;;;;;;;;;4947496;28;20033;-76
2022/02/09 08:09:30;;;;;;;18.65;6.75;;;;;;;;;;4944506;28;20793;-77
2022/02/09 08:30:47;;;;;;;9.65;4.65;;;8.00;99.90;;;;;;4918216;28;20487;-77
2022/02/09 08:33:17;;;;;;;13.68;5.95;;;;;;;;;;4951454;28;20078;-77
2022/02/09 08:35:48;;;;;;;12.63;5.90;;;8.00;99.90;;;;;;4952714;28;20058;-77
2022/02/09 08:38:14;;;;;;;12.85;4.97;;;;;;;;;;4944659;28;20052;-77
2022/02/09 08:40:40;;;;;;;17.80;5.78;;;;;;;;;;4948019;28;20570;-77
2022/02/09 08:43:08;;;;;;;10.85;5.75;;;;;;;;;;4951757;28;20024;-77
2022/02/09 08:45:35;;;;;;;13.07;5.53;;;;;;;;;;4937901;28;20407;-77
2022/02/09 08:48:00;;;;;;;13.50;4.82;;;7.90;99.90;;;;;;4938816;28;20105;-77
2022/02/09 08:50:26;;;;;;;10.55;5.43;;;;;;;;;;4950145;28;20332;-78
2022/02/09 08:52:53;;;;;;;10.23;4.40;;;8.10;99.90;;;;;;4933863;29;20415;-78
2022/02/09 08:55:19;;;;;;;8.75;4.30;;;;;;;;;;4942434;28;20035;-77
2022/02/09 08:57:45;;;;;;;15.02;4.72;;;;;;;;;;4943562;28;20463;-78
2022/02/09 09:00:34;;;;;;;9.77;4.47;;;8.10;99.90;;;;;;4947393;28;20101;-77
2022/02/09 09:03:12;;;;;;;11.95;4.47;;;8.20;99.90;;;;;;4950575;28;20038;-77
2022/02/09 09:06:03;;;;;;;12.70;4.25;;;8.20;99.90;;;;;;4952030;28;20166;-77
2022/02/09 10:33:58;;;;;;;10.32;3.10;;;10.50;99.90;;;;;;4954079;28;20027;-77
2022/02/09 10:36:24;;;;;;;9.38;3.10;;;;;;;;;;4946404;28;20027;-77
2022/02/09 10:39:10;;;;;;;9.02;3.30;;;10.50;99.90;;;;;;4959020;28;20047;-77
2022/02/09 10:44:49;;;;;;;8.05;2.47;;;;;;;;;;4942328;28;20518;-77
2022/02/09 10:50:10;;;;;;;7.18;2.63;;;;;;;;;;5004336;23;20078;-78
2022/02/09 10:52:41;;;;;;;9.15;2.97;;;;;;;;;;4989980;28;20072;-78
2022/02/09 10:55:25;;;;;;;9.05;2.47;;;10.70;99.90;;;;;;4987045;28;20494;-78
2022/02/09 11:00:23;;;;;;;10.02;3.15;;;11.00;99.90;;;;;;4985901;28;20572;-77
2022/02/09 11:02:52;;;;;;;7.72;2.58;;;11.10;99.90;;;;;;4970782;28;20034;-77
2022/02/09 11:05:19;;;;;;;8.35;3.00;;;11.30;99.90;;;;;;4984898;28;20026;-77
2022/02/09 11:07:49;;;;;;;10.00;3.28;;;11.50;99.90;;;;;;4987976;28;20040;-75
2022/02/09 11:10:16;;;;;;;7.32;2.92;;;;;;;;;;4990179;28;20026;-78
2022/02/09 11:12:45;;;;;;;9.40;3.08;;;11.80;99.90;;;;;;4985271;28;20114;-77
2022/02/09 11:15:17;;;;;;;10.95;3.92;;;11.90;99.90;;;;;;4984807;28;20030;-77
2022/02/09 11:17:45;;;;;;;7.30;2.58;;;;;;;;;;4987888;28;20030;-77
2022/02/09 11:20:11;;;;;;;7.15;2.78;;;;;;;;;;4970100;28;20023;-78
2022/02/09 11:22:42;;;;;;;6.78;2.67;;;12.10;99.90;;;;;;4981720;28;20082;-77
2022/02/09 11:25:32;;;;;;;7.25;2.80;;;10.40;99.90;;;;;;4987249;28;20061;-77
2022/02/09 11:28:38;;;;;;;8.02;2.60;;;12.60;99.90;;;;;;4987114;28;20650;-76
2022/02/09 11:31:16;;;;;;;5.85;2.30;;;12.60;99.90;;;;;;4971561;28;20541;-78
2022/02/09 11:34:02;;;;;;;5.53;2.40;;;13.00;99.90;;;;;;4969142;28;20077;-76
2022/02/09 11:36:40;;;;;;;11.55;2.90;;;;;;;;;;4985475;28;20023;-78
2022/02/09 11:39:18;;;;;;;9.07;2.53;;;;;;;;;;4982687;28;20061;-77
2022/02/09 11:42:08;;;;;;;4.40;2.15;;;;;;;;;;4985382;28;21609;-76
2022/02/09 11:44:59;;;;;;;9.90;2.88;;;;;;;;;;4968489;28;20791;-79
2022/02/09 11:50:38;;;;;;;6.18;2.05;;;;;;;;;;4987881;28;20412;-78
2022/02/09 11:56:40;;;;;;;7.38;2.83;;;;;;;;;;4986989;28;20037;-75
2022/02/09 11:59:21;;;;;;;10.45;2.15;;;;;;;;;;4991080;28;20034;-77
2022/02/09 12:10:19;;;;;;;4.88;2.00;;;12.00;99.90;;;;;;4985929;28;20064;-77
2022/02/09 12:13:00;;;;;;;6.00;2.30;;;12.10;99.90;;;;;;4973421;28;20034;-76
2022/02/09 12:15:50;;;;;;;4.75;2.20;;;12.20;99.90;;;;;;4970226;28;20089;-77
2022/02/09 12:18:32;;;;;;;6.90;1.80;;;;;;;;;;4964663;28;20073;-77
2022/02/09 12:21:14;;;;;;;9.18;2.15;;;12.30;99.90;;;;;;4987260;28;20026;-77
2022/02/09 12:23:42;;;;;;;5.18;2.00;;;;;;;;;;4989145;28;20018;-77
2022/02/09 12:26:12;;;;;;;5.65;2.50;;;12.30;99.90;;;;;;4986524;28;20390;-77
2022/02/09 12:28:40;;;;;;;8.98;3.00;;;;;;;;;;4989191;28;20116;-78
2022/02/09 12:31:10;;;;;;;7.97;2.28;;;12.50;99.90;;;;;;4969611;28;20043;-77
2022/02/09 12:34:00;;;;;;;6.93;2.70;;;;;;;;;;4986626;28;20026;-78
2022/02/09 12:36:26;;;;;;;7.43;2.20;;;;;;;;;;4985586;28;20026;-77
2022/02/09 12:38:57;;;;;;;6.30;2.20;;;;;;;;;;4990426;28;20050;-77
2022/02/09 12:41:24;;;;;;;6.55;2.20;;;13.00;99.90;;;;;;4974086;28;20026;-76
2022/02/09 12:43:57;;;;;;;7.53;2.60;;;;;;;;;;4995185;28;20031;-77
2022/02/09 12:46:28;;;;;;;5.32;1.80;;;;;;;;;;4992955;28;20023;-77
2022/02/09 12:48:54;;;;;;;5.38;1.73;;;;;;;;;;4993388;28;20097;-78
2022/02/09 12:51:28;;;;;;;5.30;1.92;;;;;;;;;;4998123;28;20030;-77
2022/02/09 12:53:54;;;;;;;4.85;1.98;;;;;;;;;;4990485;28;20101;-78
2022/02/09 12:56:22;;;;;;;6.90;2.15;;;;;;;;;;4989792;28;20041;-77
2022/02/09 12:58:58;;;;;;;7.40;2.20;;;;;;;;;;4989720;28;20497;-78
2022/02/09 13:01:25;;;;;;;7.22;2.30;;;;;;;;;;4990289;28;20033;-78
2022/02/09 13:03:51;;;;;;;6.47;1.80;;;;;;;;;;4993939;28;20101;-78
2022/02/09 13:06:17;;;;;;;7.57;2.35;;;;;;;;;;4976707;28;20026;-77
2022/02/09 14:18:20;;;;;;;7.55;2.50;;;12.90;98.70;;;;;;4970937;28;20118;-80
2022/02/09 14:58:07;;;;;;;7.85;3.72;;;12.70;99.90;;;;;;5020484;28;20124;-80
2022/02/09 15:00:37;;;;;;;5.03;2.17;;;12.40;99.10;;;;;;5017208;28;20033;-80
2022/02/09 15:11:29;;;;;;;9.07;2.97;;;12.20;99.90;;;;;;5022844;28;20029;-80
2022/02/09 15:16:12;;;;;;;7.57;2.67;;;;;;;;;;5035400;28;20036;-80
2022/02/09 15:23:39;;;;;;;10.02;2.45;;;;;;;;;;5026937;28;20421;-80
2022/02/09 15:26:05;;;;;;;5.20;2.35;;;;;;;;;;5019725;28;20038;-80
2022/02/09 15:28:35;;;;;;;6.95;2.65;;;;;;;;;;5023894;28;20032;-79
2022/02/09 15:31:10;;;;;;;7.53;2.40;;;;;;;;;;5034731;28;20028;-79
2022/02/09 15:33:42;;;;;;;5.70;2.40;;;;;;;;;;5022635;28;20049;-80
2022/02/09 15:36:12;;;;;;;8.98;2.58;;;;;;;;;;5014156;28;20034;-80
2022/02/09 15:38:45;;;;;;;6.72;2.72;;;;;;;;;;5003861;28;20034;-81
2022/02/09 15:41:29;;;;;;;5.18;2.05;;;12.00;99.70;;;;;;5006862;28;20030;-80
2022/02/09 16:06:13;;;;;;;6.65;2.40;;;;;;;;;;5012705;28;20521;-80
2022/02/09 16:17:56;;;;;;;6.68;2.50;;;11.60;99.90;;;;;;5010504;28;20496;-80
2022/02/09 16:22:26;;;;;;;7.90;2.55;;;;;;;;;;5009897;28;20038;-79
2022/02/09 16:46:15;;;;;;;8.20;2.50;;;10.90;99.90;;;;;;5013608;28;20100;-79
2022/02/09 16:48:48;;;;;;;6.67;2.30;;;11.00;99.90;;;;;;5013779;28;20042;-80
2022/02/09 16:51:19;;;;;;;6.63;2.42;;;11.30;99.90;;;;;;5011756;28;20293;-80
2022/02/09 16:54:00;;;;;;;5.85;3.20;;;11.20;99.90;;;;;;5014483;28;20026;-79
2022/02/09 16:56:51;;;;;;;6.78;2.80;;;;;;;;;;5017070;28;20038;-79
2022/02/09 17:21:08;;;;;;;6.90;2.67;;;10.50;99.90;;;;;;5014937;28;20037;-82
2022/02/09 17:23:37;;;;;;;9.05;3.65;;;;;;;;;;5004370;28;20045;-81
2022/02/09 17:26:04;;;;;;;12.30;3.28;;;10.40;99.90;;;;;;5018917;28;20594;-82
2022/02/09 17:28:30;;;;;;;8.65;3.30;;;;;;;;;;5008615;28;20030;-82
2022/02/09 17:36:11;;;;;;;8.90;2.92;;;;;;;;;;5005897;28;20072;-81
2022/02/09 17:57:43;;;;;;;11.85;3.25;;;9.70;99.90;;;;;;5009157;28;20363;-81
2022/02/09 18:02:38;;;;;;;11.50;4.53;;;;;;;;;;5007994;28;20030;-81
2022/02/09 18:05:11;;;;;;;10.15;4.13;;;9.50;99.90;;;;;;5009859;28;20037;-81
2022/02/09 18:07:39;;;;;;;9.15;3.65;;;;;;;;;;5009047;28;20026;-81
2022/02/09 18:10:32;;;;;;;11.07;3.50;;;9.30;99.90;;;;;;5007351;28;20053;-82
2022/02/09 18:25:16;;;;;;;9.85;4.00;;;9.30;99.90;;;;;;5002634;28;20045;-81
2022/02/09 18:34:57;;;;;;;13.07;4.13;;;;;;;;;;5016829;28;20044;-80
2022/02/09 18:45:20;;;;;;;9.98;4.90;;;8.80;99.90;;;;;;5005598;28;20087;-80
2022/02/09 19:03:36;;;;;;;14.20;5.88;;;;;;;;;;5022312;28;20033;-81
2022/02/09 19:06:20;;;;;;;19.58;5.45;;;8.10;99.90;;;;;;5019620;28;20118;-81
2022/02/09 19:14:06;;;;;;;16.60;4.75;;;;;;;;;;5022226;28;20058;-81
2022/02/09 19:14:44;;;;;;;12.13;5.20;;;;;;;;;;5011854;28;20041;-80
2022/02/09 19:20:09;;;;;;;10.27;4.88;;;;;;;;;;5006386;28;20041;-81
2022/02/09 19:47:40;;;;;;;13.60;6.53;;;;;;;;;;5019454;28;20021;-85
2022/02/09 19:53:26;;;;;;;12.68;5.65;;;;;;;;;;5017938;28;20045;-83
2022/02/09 19:55:58;;;;;;;13.65;6.07;;;;;;;;;;5017989;28;20026;-81
2022/02/09 19:58:35;;;;;;;13.23;6.70;;;;;;;;;;5012641;28;20066;-85
2022/02/09 20:01:01;;;;;;;15.82;5.88;;;;;;;;;;5030984;28;20049;-81
2022/02/09 20:03:27;;;;;;;14.80;5.38;;;;;;;;;;5015849;28;20049;-82
2022/02/09 20:05:53;;;;;;;10.48;4.95;;;;;;;;;;5020206;28;20624;-85
2022/02/09 20:08:53;;;;;;;13.38;6.07;;;;;;;;;;5015308;28;20102;-82
2022/02/09 20:11:19;;;;;;;11.18;5.65;;;;;;;;;;5010098;28;20041;-81
2022/02/09 20:13:50;;;;;;;13.45;5.57;;;7.10;99.90;;;;;;5012181;28;20036;-82
2022/02/09 20:16:19;;;;;;;15.63;5.50;;;7.50;99.90;;;;;;5032128;28;20052;-86
2022/02/09 20:18:46;;;;;;;14.38;5.60;;;;;;;;;;5017167;28;20038;-83
2022/02/09 20:27:14;;;;;;;11.38;5.43;;;;;;;;;;5720347;22;20061;-81
2022/02/09 20:29:42;;;;;;;11.23;5.15;;;7.40;99.90;;;;;;5215403;22;20144;-80
2022/02/09 20:32:19;;;;;;;14.10;5.82;;;;;;;;;;5037415;28;20037;-79
2022/02/09 20:34:55;;;;;;;13.40;5.82;;;;;;;;;;5036515;28;20036;-78
2022/02/09 20:37:25;;;;;;;13.93;6.00;;;7.20;99.90;;;;;;5042333;28;20067;-80
2022/02/09 20:40:12;;;;;;;13.90;5.50;;;7.00;99.90;;;;;;5026387;28;20091;-77
2022/02/09 20:45:19;;;;;;;14.02;5.80;;;;;;;;;;5038537;28;20117;-80
2022/02/09 20:47:55;;;;;;;14.00;7.07;;;;;;;;;;5046753;28;20040;-80
2022/02/09 20:50:21;;;;;;;14.68;7.88;;;;;;;;;;5032029;28;20028;-83
2022/02/09 20:52:47;;;;;;;17.55;7.38;;;;;;;;;;5037887;28;20029;-85
2022/02/09 20:55:13;;;;;;;19.35;8.23;;;;;;;;;;5030805;28;20107;-85
2022/02/09 20:57:39;;;;;;;13.57;7.82;;;;;;;;;;5029216;28;20048;-83
2022/02/09 21:00:10;;;;;;;12.90;6.18;;;;;;;;;;5027495;28;20037;-79
2022/02/09 21:13:36;;;;;;;13.75;6.47;;;;;;;;;;5031500;28;20414;-83
2022/02/09 21:16:16;;;;;;;12.32;6.65;;;;;;;;;;5034032;28;20053;-82
2022/02/09 21:27:29;;;;;;;20.05;7.50;;;;;;;;;;5034003;28;20086;-83
2022/02/09 21:54:10;;;;;;;14.82;7.00;;;;;;;;;;5038569;28;20128;-86
2022/02/09 21:56:50;;;;;;;16.77;7.57;;;;;;;;;;5034344;28;20033;-84
2022/02/09 22:27:25;;;;;;;13.98;6.45;;;;;;;;;;5035546;28;20143;-81
2022/02/09 22:46:10;;;;;;;13.57;6.47;;;;;;;;;;5029575;28;20032;-86
2022/02/09 22:56:31;;;;;;;12.60;5.82;;;;;;;;;;5032083;28;20124;-87
2022/02/09 22:58:59;;;;;;;12.65;5.32;;;;;;;;;;5021188;28;20029;-87
2022/02/09 23:01:41;;;;;;;11.73;5.40;;;;;;;;;;5015349;28;20033;-88
